Time;durP1;ratioP1;P1;durP2;ratioP2;P2;SDS_P1;SDS_P2;PMS_P1;PMS_P2;Temp;Humidity;BMP_temperature;BMP_pressure;BME280_temperature;BME280_humidity;BME280_pressure;Samples;Min_cycle;Max_cycle;Signal;HPM_P1;HPM_P2
2021/12/07 00:02:09;;;;;;;19.73;9.82;;;;;;;0.39;76.24;98664.66;4259294;33;33658;-73
2021/12/07 00:04:39;;;;;;;14.80;8.30;;;;;;;0.28;76.67;98659.34;4260687;33;33927;-73
2021/12/07 00:07:07;;;;;;;16.20;8.38;;;;;;;0.39;76.11;98651.87;4258990;33;34978;-73
2021/12/07 00:09:35;;;;;;;17.85;8.75;;;;;;;0.10;77.02;98653.84;4247650;33;34545;-73
2021/12/07 00:12:06;;;;;;;13.65;8.23;;;;;;;-0.01;77.64;98666.44;4259989;33;34333;-73
2021/12/07 00:14:39;;;;;;;19.45;8.50;;;;;;;-0.13;78.51;98663.62;4247684;33;33992;-73
2021/12/07 00:17:08;;;;;;;20.60;8.32;;;;;;;-0.31;79.04;98656.44;4259978;33;35204;-73
2021/12/07 00:19:36;;;;;;;21.80;9.98;;;;;;;-0.10;78.57;98658.56;4233418;33;34561;-73
2021/12/07 00:22:06;;;;;;;17.83;9.18;;;;;;;-0.36;78.93;98643.53;4246619;33;33875;-73
2021/12/07 00:24:39;;;;;;;20.85;9.52;;;;;;;-0.39;79.77;98653.69;4248306;33;33781;-73
2021/12/07 00:27:07;;;;;;;18.12;8.45;;;;;;;-0.47;80.05;98665.47;4238602;33;34958;-73
2021/12/07 00:29:35;;;;;;;14.77;7.87;;;;;;;-0.39;80.30;98664.81;4262396;33;34639;-72
2021/12/07 00:32:28;;;;;;;18.25;9.32;;;;;;;-0.25;79.12;98672.78;4262468;33;34399;-73
2021/12/07 00:37:26;;;;;;;16.35;8.02;;;;;;;-0.43;79.27;98677.47;4249053;33;35153;-73
2021/12/07 00:39:55;;;;;;;22.42;9.48;;;;;;;0.06;77.92;98686.22;4262415;33;35089;-72
2021/12/07 00:42:23;;;;;;;17.85;9.13;;;;;;;-0.22;78.32;98674.53;4261462;33;34674;-73
2021/12/07 00:44:52;;;;;;;17.95;8.50;;;;;;;-0.21;79.55;98676.25;4249370;33;34722;-73
2021/12/07 00:47:20;;;;;;;19.48;8.75;;;;;;;-0.30;79.48;98676.94;4247946;33;35029;-73
2021/12/07 00:49:47;;;;;;;16.95;9.30;;;;;;;0.01;77.92;98675.00;4249477;33;34467;-73
2021/12/07 00:52:16;;;;;;;18.70;9.27;;;;;;;-0.15;78.20;98667.84;4261757;33;33764;-73
2021/12/07 00:54:44;;;;;;;20.17;10.15;;;;;;;-0.34;78.97;98659.75;4261919;33;33909;-73
2021/12/07 00:57:11;;;;;;;20.27;9.10;;;;;;;-0.09;78.28;98661.19;4262509;33;35075;-73
2021/12/07 00:59:40;;;;;;;16.58;6.80;;;;;;;0.17;78.28;98664.22;4261302;33;34419;-73
2021/12/07 01:02:07;;;;;;;18.23;9.10;;;;;;;-0.01;78.27;98669.84;4262143;33;33603;-73
2021/12/07 01:04:35;;;;;;;17.42;8.43;;;;;;;0.58;75.33;98660.72;4259473;33;33831;-73
2021/12/07 01:07:07;;;;;;;20.73;8.57;;;;;;;0.32;76.53;98661.13;4261373;33;35086;-73
2021/12/07 01:24:40;;;;;;;18.50;8.93;;;;;;;0.50;75.34;98663.16;4261454;33;35323;-73
2021/12/07 01:26:35;;;;;;;13.25;9.00;;;;;;;-0.61;79.47;98650.66;4262233;33;33862;-73
2021/12/07 01:29:03;;;;;;;19.67;9.27;;;;;;;-0.06;78.15;98655.25;4260573;33;35838;-73
2021/12/07 01:31:50;;;;;;;21.60;9.80;;;;;;;0.09;77.45;98655.56;4262340;33;34679;-73
2021/12/07 01:39:50;;;;;;;16.10;8.80;;;;;;;-0.06;77.46;98639.88;4261539;33;35173;-75
2021/12/07 01:45:27;;;;;;;16.37;8.52;;;;;;;-0.01;77.85;98628.03;4262069;33;33755;-73
2021/12/07 02:01:53;;;;;;;14.13;7.43;;;;;;;-0.31;79.51;98639.38;4251038;33;35047;-73
2021/12/07 02:04:22;;;;;;;17.90;9.48;;;;;;;-0.26;79.27;98642.91;4261255;33;34570;-74
2021/12/07 02:06:50;;;;;;;18.42;10.30;;;;;;;-0.48;80.70;98644.13;4261035;33;33656;-72
2021/12/07 02:09:17;;;;;;;14.85;6.90;;;;;;;-0.61;80.59;98640.44;4261011;33;34310;-73
2021/12/07 02:11:49;;;;;;;18.27;9.85;;;;;;;0.44;76.29;98645.13;4261929;33;35189;-73
2021/12/07 02:14:18;;;;;;;21.42;9.82;;;;;;;0.00;77.53;98647.69;4248154;33;33493;-73
2021/12/07 02:16:50;;;;;;;16.62;8.40;;;;;;;-0.46;80.19;98649.25;4261716;33;33684;-73
2021/12/07 02:19:20;;;;;;;17.80;9.27;;;;;;;0.07;77.72;98641.88;4261267;33;34774;-73
2021/12/07 02:21:48;;;;;;;20.23;10.05;;;;;;;-0.16;77.98;98643.09;4262038;33;35923;-73
2021/12/07 02:24:17;;;;;;;15.63;8.93;;;;;;;-0.40;79.22;98644.31;4261128;33;34504;-73
2021/12/07 02:26:47;;;;;;;14.87;7.82;;;;;;;-0.30;79.42;98641.12;4247939;33;34401;-73
2021/12/07 02:29:16;;;;;;;21.02;11.07;;;;;;;0.34;77.40;98630.44;4260038;33;33125;-73
2021/12/07 02:31:45;;;;;;;18.65;8.77;;;;;;;0.04;77.85;98635.84;4261917;33;35092;-73
2021/12/07 02:34:13;;;;;;;18.15;9.85;;;;;;;0.02;78.57;98632.34;4260934;33;34543;-73
2021/12/07 02:36:42;;;;;;;22.10;9.63;;;;;;;0.15;77.51;98631.78;4248907;33;33807;-73
2021/12/07 02:39:12;;;;;;;24.83;9.85;;;;;;;0.32;76.97;98632.09;4259623;33;34686;-74
2021/12/07 02:41:41;;;;;;;10.95;6.80;;;;;;;-0.10;78.22;98627.88;4237360;33;34360;-73
2021/12/07 02:44:09;;;;;;;15.13;7.37;;;;;;;0.14;78.60;98630.03;4260779;33;35151;-73
2021/12/07 02:46:38;;;;;;;18.98;8.85;;;;;;;0.16;77.94;98620.72;4260569;33;33689;-73
2021/12/07 02:49:08;;;;;;;18.90;9.30;;;;;;;-0.02;78.67;98621.19;4236175;33;32443;-73
2021/12/07 02:51:36;;;;;;;19.98;9.55;;;;;;;0.27;77.65;98615.78;4248641;33;35044;-73
2021/12/07 02:54:05;;;;;;;16.62;8.43;;;;;;;0.24;78.05;98619.13;4248226;33;35305;-73
2021/12/07 02:56:33;;;;;;;8.60;5.00;;;;;;;0.35;77.17;98609.09;4261705;33;33624;-73
2021/12/07 02:59:03;;;;;;;20.70;9.18;;;;;;;0.51;76.03;98602.53;4259536;33;33795;-73
2021/12/07 03:01:35;;;;;;;27.10;11.85;;;;;;;-0.12;77.96;98606.50;4261607;33;35050;-73
2021/12/07 03:04:12;;;;;;;19.30;8.50;;;;;;;-0.53;79.92;98609.06;4253847;33;34426;-73
2021/12/07 03:28:23;;;;;;;28.52;10.55;;;;;;;0.53;76.19;98612.00;4236064;33;31942;-73
2021/12/07 03:30:51;;;;;;;17.55;7.95;;;;;;;0.81;74.86;98612.44;4260031;33;33614;-73
2021/12/07 03:33:19;;;;;;;23.05;9.40;;;;;;;0.14;77.27;98618.12;4246734;33;34981;-73
2021/12/07 03:35:48;;;;;;;20.37;9.18;;;;;;;0.50;76.12;98611.94;4261118;33;35250;-73
2021/12/07 03:38:16;;;;;;;14.52;7.18;;;;;;;0.02;78.90;98612.75;4259455;33;33693;-76
2021/12/07 03:40:45;;;;;;;20.25;9.32;;;;;;;0.42;77.26;98608.38;4236789;33;34670;-73
2021/12/07 03:43:14;;;;;;;17.02;8.95;;;;;;;0.10;78.06;98611.19;4259348;33;35904;-73
2021/12/07 03:45:43;;;;;;;20.62;10.75;;;;;;;0.52;76.43;98615.38;4260962;33;34453;-73
2021/12/07 03:48:12;;;;;;;23.35;11.57;;;;;;;-0.25;79.22;98610.50;4260311;33;33748;-73
2021/12/07 03:50:40;;;;;;;19.50;9.27;;;;;;;0.05;78.74;98617.06;4236392;33;34096;-73
2021/12/07 03:53:13;;;;;;;25.58;11.25;;;;;;;0.02;79.16;98620.44;4260257;33;35141;-73
2021/12/07 03:55:41;;;;;;;21.05;10.70;;;;;;;0.34;77.74;98620.19;4249231;33;34452;-73
2021/12/07 03:58:09;;;;;;;20.60;9.25;;;;;;;-0.27;80.06;98607.03;4261186;33;33769;-72
2021/12/07 04:00:41;;;;;;;20.10;9.88;;;;;;;-0.20;79.28;98617.41;4262526;33;33996;-72
2021/12/07 04:03:12;;;;;;;21.23;9.55;;;;;;;-0.35;80.24;98621.34;4262457;33;35033;-73
2021/12/07 04:05:47;;;;;;;15.57;6.10;;;;;;;-0.20;80.49;98617.41;4247401;33;33749;-72
2021/12/07 04:08:19;;;;;;;15.25;7.50;;;;;;;-0.30;80.08;98620.66;4248614;33;33761;-73
2021/12/07 04:10:48;;;;;;;17.95;9.57;;;;;;;-0.01;79.70;98622.94;4262873;33;33894;-73
2021/12/07 04:13:17;;;;;;;21.25;8.65;;;;;;;-0.23;80.01;98622.50;4249351;33;35915;-73
2021/12/07 04:15:44;;;;;;;17.42;8.65;;;;;;;0.22;78.00;98625.06;4247131;33;34544;-73
2021/12/07 04:18:13;;;;;;;17.65;8.15;;;;;;;0.35;77.49;98614.22;4243742;33;33513;-72
2021/12/07 04:20:41;;;;;;;23.45;10.80;;;;;;;0.45;77.30;98623.78;4262467;33;33956;-73
2021/12/07 04:23:09;;;;;;;13.82;7.30;;;;;;;-0.52;80.36;98614.19;4260088;33;35950;-73
2021/12/07 04:25:37;;;;;;;18.60;9.80;;;;;;;0.25;78.03;98620.87;4261554;33;34583;-73
2021/12/07 04:28:07;;;;;;;17.58;9.07;;;;;;;-0.22;79.98;98620.78;4261776;33;33850;-73
2021/12/07 04:30:38;;;;;;;24.05;10.10;;;;;;;-0.07;79.50;98622.78;4249618;33;33927;-73
2021/12/07 04:33:09;;;;;;;19.85;10.75;;;;;;;0.04;79.09;98631.56;4260104;33;35035;-73
2021/12/07 04:35:38;;;;;;;16.75;9.15;;;;;;;-0.15;78.99;98638.00;4260324;33;33463;-73
2021/12/07 04:38:07;;;;;;;20.58;10.57;;;;;;;0.21;78.38;98639.56;4248859;33;35431;-72
2021/12/07 04:40:35;;;;;;;19.77;9.40;;;;;;;-0.16;78.88;98633.69;4261403;33;33811;-73
2021/12/07 04:43:04;;;;;;;22.95;9.35;;;;;;;-0.01;79.23;98628.03;4260912;33;35016;-73
2021/12/07 04:45:47;;;;;;;18.92;8.88;;;;;;;-0.27;80.17;98630.94;4261317;33;35326;-72
2021/12/07 04:59:15;;;;;;;14.93;7.28;;;;;;;-0.09;79.59;98644.94;4261666;33;33254;-73
2021/12/07 05:01:44;;;;;;;19.08;9.27;;;;;;;0.06;78.69;98658.06;4262240;33;33951;-73
2021/12/07 05:04:18;;;;;;;14.87;7.82;;;;;;;-0.39;80.33;98652.00;4248713;33;36090;-72
2021/12/07 05:06:50;;;;;;;18.70;9.82;;;;;;;0.24;77.98;98656.69;4262199;33;34487;-73
2021/12/07 05:14:28;;;;;;;16.33;7.55;;;;;;;-0.11;79.05;98656.84;4247737;33;35901;-73
2021/12/07 05:17:16;;;;;;;14.25;8.10;;;;;;;0.31;77.40;98655.97;4251118;33;35268;-73
2021/12/07 05:38:58;;;;;;;;;;;;;;;-0.42;80.66;98654.50;4245488;33;34459;-73
2021/12/07 05:41:26;;;;;;;14.77;8.50;;;;;;;-0.61;81.58;98666.00;4262099;33;33733;-73
2021/12/07 05:43:56;;;;;;;18.02;8.70;;;;;;;-0.02;79.12;98667.25;4261187;33;34710;-73
2021/12/07 05:46:24;;;;;;;16.98;8.43;;;;;;;-0.18;79.64;98662.66;4261659;33;35092;-73
2021/12/07 05:48:52;;;;;;;19.20;9.57;;;;;;;-0.42;80.53;98654.50;4260028;33;34720;-73
2021/12/07 05:51:20;;;;;;;20.42;8.57;;;;;;;-0.15;78.49;98655.06;4262163;33;34472;-73
2021/12/07 05:53:48;;;;;;;21.80;9.48;;;;;;;-0.44;80.80;98650.16;4259565;33;34867;-73
2021/12/07 05:56:16;;;;;;;27.05;10.50;;;;;;;-0.58;80.78;98645.63;4261218;33;35848;-73
2021/12/07 05:58:44;;;;;;;16.17;8.93;;;;;;;-0.70;80.91;98641.94;4260705;33;35308;-72
2021/12/07 06:01:12;;;;;;;17.48;8.88;;;;;;;-0.55;80.55;98637.13;4261940;33;33681;-72
2021/12/07 06:03:40;;;;;;;21.95;10.02;;;;;;;-0.12;78.65;98642.34;4261058;33;33845;-73
2021/12/07 06:06:13;;;;;;;17.60;8.20;;;;;;;0.03;78.01;98640.06;4261987;33;35144;-73
2021/12/07 06:08:42;;;;;;;15.52;8.13;;;;;;;-0.09;77.22;98642.38;4259617;33;33203;-72
2021/12/07 06:11:10;;;;;;;18.58;9.27;;;;;;;0.08;77.15;98629.94;4261788;33;33667;-73
2021/12/07 06:13:38;;;;;;;16.62;9.38;;;;;;;-0.71;80.17;98642.75;4260585;33;33591;-72
2021/12/07 06:16:08;;;;;;;18.62;9.02;;;;;;;-0.57;79.48;98636.25;4261755;33;35156;-72
2021/12/07 06:18:36;;;;;;;13.10;7.25;;;;;;;-0.53;80.43;98642.28;4260979;33;34308;-73
2021/12/07 06:21:04;;;;;;;23.62;10.50;;;;;;;-0.60;81.32;98639.63;4261395;33;33672;-72
2021/12/07 06:23:32;;;;;;;12.32;6.25;;;;;;;-0.54;80.23;98645.69;4259701;33;34802;-73
2021/12/07 06:26:01;;;;;;;18.12;9.82;;;;;;;-0.59;79.20;98636.22;4261538;33;35178;-73
2021/12/07 06:28:30;;;;;;;21.37;11.07;;;;;;;-0.52;80.01;98634.66;4258818;33;34471;-73
2021/12/07 06:30:58;;;;;;;23.60;10.05;;;;;;;-0.78;80.62;98642.63;4261658;33;33718;-73
2021/12/07 06:33:27;;;;;;;18.90;8.95;;;;;;;-0.53;79.14;98637.19;4257564;33;33907;-73
2021/12/07 06:35:57;;;;;;;19.60;9.35;;;;;;;-0.21;78.70;98638.75;4261704;33;35896;-72
2021/12/07 06:38:28;;;;;;;26.42;9.00;;;;;;;-0.55;79.84;98638.84;4247335;33;34501;-73
2021/12/07 06:40:56;;;;;;;19.67;8.05;;;;;;;-0.52;80.13;98639.78;4261708;33;33756;-72
2021/12/07 06:43:24;;;;;;;27.20;10.43;;;;;;;-0.32;78.85;98636.78;4258532;33;34168;-73
2021/12/07 06:45:52;;;;;;;17.42;9.00;;;;;;;-0.90;80.30;98638.88;4261381;33;35146;-72
2021/12/07 06:48:21;;;;;;;19.98;8.60;;;;;;;-0.87;80.52;98633.84;4260787;33;34401;-73
2021/12/07 06:50:48;;;;;;;19.83;9.15;;;;;;;-0.51;79.68;98640.62;4256159;33;33454;-72
2021/12/07 06:53:17;;;;;;;18.42;9.23;;;;;;;-0.62;78.70;98638.72;4258603;33;34712;-72
2021/12/07 06:55:45;;;;;;;19.23;9.40;;;;;;;-0.27;78.28;98638.59;4261010;33;32884;-73
2021/12/07 06:58:13;;;;;;;17.20;9.10;;;;;;;-0.83;80.00;98643.31;4261274;33;35378;-74
2021/12/07 07:00:41;;;;;;;22.25;9.10;;;;;;;-0.49;78.43;98649.22;4260537;33;33796;-73
2021/12/07 07:03:09;;;;;;;21.73;9.30;;;;;;;-0.31;78.20;98654.72;4260639;33;33964;-74
2021/12/07 07:05:37;;;;;;;20.92;10.02;;;;;;;-0.84;79.98;98656.94;4260614;33;35121;-73
2021/12/07 07:08:07;;;;;;;15.88;8.35;;;;;;;-0.54;79.30;98659.34;4259501;33;34609;-72
2021/12/07 07:10:34;;;;;;;19.52;9.45;;;;;;;-0.90;80.01;98665.34;4248722;33;33679;-72
2021/12/07 07:13:02;;;;;;;14.32;7.82;;;;;;;-0.69;79.41;98666.66;4247607;33;34078;-72
2021/12/07 07:15:30;;;;;;;17.33;7.65;;;;;;;-0.86;80.89;98669.69;4259574;33;35091;-73
2021/12/07 07:18:00;;;;;;;15.27;9.38;;;;;;;-0.50;79.80;98665.38;4260317;33;35420;-73
2021/12/07 07:20:28;;;;;;;26.83;10.75;;;;;;;-0.54;79.21;98664.44;4261255;33;34632;-72
2021/12/07 07:22:56;;;;;;;20.75;11.05;;;;;;;-0.57;80.29;98660.13;4247689;33;33898;-73
2021/12/07 07:25:24;;;;;;;18.55;9.88;;;;;;;-0.42;80.14;98674.09;4261155;33;35140;-72
2021/12/07 07:27:52;;;;;;;21.17;10.07;;;;;;;0.43;76.35;98668.16;4245998;33;35194;-73
2021/12/07 07:30:21;;;;;;;22.00;9.88;;;;;;;0.06;77.46;98665.72;4259826;33;34445;-73
2021/12/07 07:32:50;;;;;;;19.77;9.38;;;;;;;0.02;77.30;98678.41;4260067;33;33819;-73
2021/12/07 07:35:19;;;;;;;15.77;8.95;;;;;;;0.59;75.69;98666.75;4250060;33;35018;-73
2021/12/07 07:37:47;;;;;;;24.77;12.07;;;;;;;-0.01;77.25;98669.00;4249350;33;34532;-73
2021/12/07 07:40:18;;;;;;;21.33;9.15;;;;;;;0.26;76.53;98672.94;4261790;33;33826;-73
2021/12/07 07:42:46;;;;;;;28.60;10.27;;;;;;;-0.36;78.79;98675.94;4262226;33;34573;-73
2021/12/07 07:45:15;;;;;;;17.85;8.50;;;;;;;0.05;77.65;98681.91;4262730;33;35005;-73
2021/12/07 07:47:43;;;;;;;20.00;10.68;;;;;;;0.62;75.04;98677.91;4249516;33;34186;-73
2021/12/07 07:50:13;;;;;;;18.23;9.85;;;;;;;0.47;74.81;98686.16;4249866;33;34571;-72
2021/12/07 07:52:42;;;;;;;20.92;9.10;;;;;;;0.69;74.49;98679.75;4261850;33;34327;-73
2021/12/07 07:55:10;;;;;;;26.55;10.05;;;;;;;0.64;74.51;98677.94;4249776;33;34990;-72
2021/12/07 07:57:38;;;;;;;27.37;11.05;;;;;;;0.38;75.48;98679.16;4260947;33;35206;-73
2021/12/07 08:00:09;;;;;;;24.15;10.18;;;;;;;0.35;75.64;98676.56;4262447;33;33714;-73
2021/12/07 08:02:39;;;;;;;17.98;9.65;;;;;;;0.22;74.94;98687.38;4260892;33;34787;-73
2021/12/07 08:05:07;;;;;;;11.02;6.85;;;;;;;0.10;76.31;98676.88;4261744;33;35106;-73
2021/12/07 08:07:35;;;;;;;23.77;10.43;;;;;;;1.20;71.82;98680.59;4250030;33;34453;-73
2021/12/07 08:10:05;;;;;;;26.98;11.80;;;;;;;0.68;73.94;98682.28;4260667;33;32378;-73
2021/12/07 08:12:34;;;;;;;21.23;10.27;;;;;;;1.16;73.03;98681.38;4238085;33;32339;-73
2021/12/07 08:15:04;;;;;;;24.90;8.98;;;;;;;0.81;73.37;98698.72;4260345;33;35112;-73
2021/12/07 08:17:32;;;;;;;22.48;10.55;;;;;;;0.85;73.12;98691.13;4249751;33;33791;-73
2021/12/07 08:20:01;;;;;;;17.00;8.38;;;;;;;0.31;75.03;98691.81;4260698;33;33776;-73
2021/12/07 08:22:30;;;;;;;25.15;10.27;;;;;;;0.53;73.37;98704.22;4262637;33;34853;-73
2021/12/07 08:24:58;;;;;;;24.10;10.65;;;;;;;1.18;72.02;98702.78;4260234;33;34731;-73
2021/12/07 08:27:26;;;;;;;25.42;10.05;;;;;;;1.79;69.62;98696.88;4262079;33;33928;-73
2021/12/07 08:29:56;;;;;;;23.55;10.70;;;;;;;1.37;70.93;98697.94;4262233;33;34589;-73
2021/12/07 08:32:24;;;;;;;23.23;9.52;;;;;;;2.36;67.72;98695.00;4262427;33;33872;-73
2021/12/07 08:34:52;;;;;;;19.60;9.73;;;;;;;2.63;66.96;98699.63;4261675;33;36070;-73
2021/12/07 08:37:20;;;;;;;19.95;9.25;;;;;;;2.93;66.42;98691.34;4262315;33;34496;-73
2021/12/07 08:39:48;;;;;;;15.15;7.75;;;;;;;4.23;62.03;98693.06;4261574;33;34353;-73
2021/12/07 08:42:17;;;;;;;18.05;9.07;;;;;;;4.86;59.99;98701.00;4262358;33;33803;-73
2021/12/07 08:44:45;;;;;;;20.08;8.73;;;;;;;5.08;59.34;98694.16;4259389;33;35047;-73
2021/12/07 08:47:13;;;;;;;24.75;8.65;;;;;;;5.28;58.36;98698.47;4262296;33;34565;-73
2021/12/07 08:50:03;;;;;;;27.83;9.45;;;;;;;5.53;57.15;98693.31;4261522;33;34500;-74
2021/12/07 08:52:31;;;;;;;17.77;8.57;;;;;;;6.35;55.33;98686.22;4262236;33;33829;-74
2021/12/07 09:00:30;;;;;;;19.98;9.07;;;;;;;6.66;53.83;98683.50;4235430;33;33091;-74
2021/12/07 09:02:59;;;;;;;18.15;9.43;;;;;;;5.29;57.17;98682.09;4248680;33;34724;-73
2021/12/07 09:05:27;;;;;;;19.73;9.27;;;;;;;4.89;58.63;98680.38;4249608;33;35950;-74
2021/12/07 09:07:55;;;;;;;17.92;7.47;;;;;;;4.98;58.52;98679.53;4262163;33;34514;-73
2021/12/07 09:10:23;;;;;;;19.37;9.38;;;;;;;4.94;57.69;98678.66;4248532;33;33995;-73
2021/12/07 09:12:51;;;;;;;21.73;10.00;;;;;;;4.39;60.14;98670.78;4261094;33;34593;-74
2021/12/07 09:15:19;;;;;;;19.52;8.82;;;;;;;4.66;59.25;98680.34;4260871;33;35868;-74
2021/12/07 09:17:48;;;;;;;19.00;8.43;;;;;;;5.20;57.53;98670.06;4261243;33;35292;-73
2021/12/07 09:20:16;;;;;;;26.08;10.80;;;;;;;4.33;60.33;98679.38;4261475;33;33717;-74
2021/12/07 09:22:46;;;;;;;15.65;8.65;;;;;;;4.04;62.18;98671.53;4260065;33;34656;-73
2021/12/07 09:25:16;;;;;;;25.50;9.88;;;;;;;3.71;62.74;98674.78;4260205;33;34932;-73
2021/12/07 09:27:44;;;;;;;20.95;9.80;;;;;;;4.17;61.87;98672.44;4249183;33;33716;-73
2021/12/07 09:30:13;;;;;;;19.98;7.15;;;;;;;4.12;61.40;98667.25;4248597;33;33898;-74
2021/12/07 09:32:42;;;;;;;20.30;10.38;;;;;;;3.28;64.48;98656.47;4249219;33;33259;-73
2021/12/07 09:35:11;;;;;;;27.15;11.07;;;;;;;3.39;63.96;98662.56;4259691;33;35190;-74
2021/12/07 09:37:39;;;;;;;24.50;10.68;;;;;;;3.25;64.62;98652.16;4260920;33;34475;-73
2021/12/07 09:40:12;;;;;;;16.42;7.47;;;;;;;3.40;64.80;98651.41;4248344;33;33741;-73
2021/12/07 09:42:41;;;;;;;18.08;8.90;;;;;;;3.27;65.44;98654.75;4261250;33;34822;-73
2021/12/07 09:45:11;;;;;;;20.67;8.70;;;;;;;3.53;64.23;98648.06;4261020;33;35051;-74
2021/12/07 09:47:39;;;;;;;21.98;10.55;;;;;;;4.36;62.25;98652.75;4249277;33;34679;-73
2021/12/07 09:50:12;;;;;;;14.40;7.05;;;;;;;5.61;58.47;98650.22;4261281;33;32848;-73
2021/12/07 09:52:40;;;;;;;29.27;10.70;;;;;;;6.27;54.81;98642.31;4261791;33;33962;-74
2021/12/07 09:55:08;;;;;;;20.15;8.90;;;;;;;4.74;59.76;98646.81;4259884;33;34964;-74
2021/12/07 09:57:36;;;;;;;13.93;7.47;;;;;;;5.86;57.16;98638.13;4247664;33;33969;-74
2021/12/07 10:00:07;;;;;;;21.20;10.20;;;;;;;6.71;54.81;98632.59;4257936;33;33675;-73
2021/12/07 10:02:38;;;;;;;19.33;9.32;;;;;;;6.64;54.29;98635.19;4261854;33;33834;-74
2021/12/07 10:05:13;;;;;;;20.17;9.50;;;;;;;8.32;49.90;98622.34;4249038;33;36031;-73
2021/12/07 10:07:41;;;;;;;22.33;10.27;;;;;;;6.98;53.07;98627.19;4261813;33;34536;-74
2021/12/07 10:10:27;;;;;;;23.20;10.18;;;;;;;7.57;51.50;98629.25;4259801;33;33966;-74
2021/12/07 10:12:57;;;;;;;21.23;10.02;;;;;;;8.07;50.49;98624.41;4261749;33;33897;-73
2021/12/07 10:15:25;;;;;;;25.55;9.18;;;;;;;8.21;50.50;98613.87;4260999;33;35017;-74
2021/12/07 10:18:04;;;;;;;22.87;10.07;;;;;;;7.72;50.29;98612.69;4260824;33;35208;-74
2021/12/07 10:20:42;;;;;;;20.12;9.30;;;;;;;7.28;51.55;98614.84;4261802;33;34640;-74
2021/12/07 10:23:16;;;;;;;17.73;8.50;;;;;;;8.27;49.91;98616.38;4260973;33;33969;-78
2021/12/07 10:25:55;;;;;;;22.52;9.88;;;;;;;8.13;49.76;98609.59;4261683;33;35048;-74
2021/12/07 10:28:42;;;;;;;20.58;9.85;;;;;;;8.27;49.22;98619.81;4260721;33;35074;-74
2021/12/07 10:31:10;;;;;;;20.52;9.18;;;;;;;7.50;50.77;98614.66;4261472;33;33820;-74
2021/12/07 10:33:42;;;;;;;19.85;9.57;;;;;;;7.31;51.31;98609.66;4260185;33;33982;-74
2021/12/07 10:36:12;;;;;;;20.90;10.20;;;;;;;8.40;49.93;98610.16;4261708;33;35011;-75
2021/12/07 10:38:42;;;;;;;22.62;10.32;;;;;;;8.40;49.20;98601.47;4260862;33;33931;-74
2021/12/07 10:41:11;;;;;;;22.52;10.15;;;;;;;8.44;49.66;98618.78;4261512;33;33758;-74
2021/12/07 10:43:48;;;;;;;24.35;10.05;;;;;;;7.49;51.22;98618.12;4245527;33;34010;-74
2021/12/07 10:46:45;;;;;;;21.15;9.73;;;;;;;7.81;50.40;98614.34;4261417;33;36017;-74
2021/12/07 10:49:25;;;;;;;24.25;10.45;;;;;;;7.62;50.66;98621.44;4246671;33;34477;-73
2021/12/07 10:52:19;;;;;;;23.55;10.35;;;;;;;7.16;52.06;98613.22;4249834;33;33740;-73
2021/12/07 10:54:46;;;;;;;26.90;10.38;;;;;;;7.17;52.83;98611.53;4261520;33;33843;-74
2021/12/07 10:57:24;;;;;;;26.95;11.20;;;;;;;7.71;50.87;98611.84;4260753;33;34883;-74
2021/12/07 10:59:56;;;;;;;19.25;9.65;;;;;;;7.83;51.31;98615.16;4261426;33;34432;-74
2021/12/07 11:02:27;;;;;;;22.08;9.75;;;;;;;7.15;52.42;98613.28;4248110;33;33573;-74
2021/12/07 11:04:55;;;;;;;26.37;11.23;;;;;;;5.73;55.82;98611.44;4248964;33;34103;-73
2021/12/07 11:07:29;;;;;;;25.08;11.60;;;;;;;3.96;62.03;98611.38;4257911;33;34941;-74
2021/12/07 11:10:18;;;;;;;16.65;8.48;;;;;;;5.36;58.08;98596.03;4248632;33;34516;-73
2021/12/07 11:13:12;;;;;;;21.42;9.45;;;;;;;4.55;61.11;98607.22;4252940;33;33741;-73
2021/12/07 11:15:51;;;;;;;22.45;10.88;;;;;;;4.20;62.29;98605.47;4260697;33;34687;-73
2021/12/07 11:18:24;;;;;;;23.02;11.57;;;;;;;4.62;61.60;98597.78;4259193;33;34369;-73
2021/12/07 11:20:53;;;;;;;21.27;9.57;;;;;;;4.11;62.88;98600.25;4260063;33;34453;-73
2021/12/07 11:23:26;;;;;;;23.98;10.80;;;;;;;3.96;63.68;98603.66;4247722;33;33634;-73
2021/12/07 11:31:37;;;;;;;18.62;10.02;;;;;;;3.61;65.20;98594.91;4248083;33;33765;-73
2021/12/07 11:34:14;;;;;;;28.48;10.18;;;;;;;3.40;65.56;98589.63;4260413;33;33873;-73
2021/12/07 11:36:45;;;;;;;;;;;;;;;3.35;64.28;98588.75;4261465;33;34733;-74
2021/12/07 11:39:26;;;;;;;23.80;10.77;;;;;;;3.78;65.27;98591.56;4261174;33;35439;-73
2021/12/07 11:42:03;;;;;;;21.00;9.80;;;;;;;4.08;63.66;98584.81;4260270;33;34480;-73
2021/12/07 11:44:34;;;;;;;25.00;9.73;;;;;;;3.77;64.19;98587.25;4260392;33;33693;-74
2021/12/07 11:47:03;;;;;;;21.00;10.55;;;;;;;4.05;64.23;98584.78;4260062;33;34116;-73
2021/12/07 11:49:34;;;;;;;25.95;10.50;;;;;;;3.35;66.77;98589.63;4248045;33;35200;-73
2021/12/07 11:52:04;;;;;;;19.90;9.93;;;;;;;3.62;66.36;98595.78;4259932;33;33772;-73
2021/12/07 11:54:36;;;;;;;26.83;11.12;;;;;;;4.03;64.78;98586.50;4247989;33;33629;-74
2021/12/07 11:57:06;;;;;;;20.40;9.60;;;;;;;3.38;66.65;98591.34;4258983;33;33813;-73
2021/12/07 11:59:35;;;;;;;27.58;11.23;;;;;;;3.31;66.97;98584.44;4260761;33;35079;-74
2021/12/07 12:02:03;;;;;;;19.70;9.90;;;;;;;2.80;68.49;98578.94;4258630;33;35297;-73
2021/12/07 12:04:32;;;;;;;21.73;9.82;;;;;;;2.22;70.84;98581.81;4259495;33;33610;-72
2021/12/07 12:07:01;;;;;;;20.62;9.43;;;;;;;2.63;69.21;98573.69;4259949;33;34098;-74
2021/12/07 12:09:30;;;;;;;162.48;55.60;;;;;;;2.54;69.64;98573.56;4247893;33;35981;-73
2021/12/07 12:12:14;;;;;;;312.88;97.28;;;;;;;2.18;71.10;98574.94;4247009;33;34323;-75
2021/12/07 12:14:47;;;;;;;160.73;56.45;;;;;;;2.23;70.73;98575.84;4255224;33;33994;-73
2021/12/07 12:17:31;;;;;;;207.80;73.15;;;;;;;2.47;69.76;98578.66;4258990;33;33941;-73
2021/12/07 12:20:28;;;;;;;229.70;88.12;;;;;;;2.33;70.34;98566.53;4259976;33;36031;-73
2021/12/07 12:23:17;;;;;;;49.88;25.95;;;;;;;2.13;72.27;98568.91;4261243;33;35350;-73
2021/12/07 12:25:57;;;;;;;30.25;14.75;;;;;;;1.83;73.16;98578.81;4261052;33;33667;-73
2021/12/07 12:28:32;;;;;;;24.75;11.57;;;;;;;2.06;72.27;98578.22;4261594;33;34029;-73
2021/12/07 12:31:00;;;;;;;22.52;9.63;;;;;;;2.10;71.11;98572.31;4261025;33;35216;-73
2021/12/07 12:33:47;;;;;;;26.20;10.35;;;;;;;1.89;72.82;98585.75;4260393;33;35275;-74
2021/12/07 12:36:16;;;;;;;23.17;10.93;;;;;;;2.27;71.97;98575.87;4249442;33;33785;-74
2021/12/07 12:38:49;;;;;;;25.85;10.55;;;;;;;1.99;72.26;98579.00;4257180;33;33893;-74
2021/12/07 12:41:17;;;;;;;25.10;9.90;;;;;;;1.79;73.35;98586.50;4235366;33;35043;-75
2021/12/07 12:43:46;;;;;;;24.08;10.90;;;;;;;2.38;71.44;98578.59;4257074;33;34583;-74
2021/12/07 12:46:17;;;;;;;20.77;10.32;;;;;;;2.34;71.39;98581.09;4261877;33;33888;-74
2021/12/07 12:48:51;;;;;;;23.02;9.32;;;;;;;1.80;73.70;98585.63;4261225;33;34743;-74
2021/12/07 12:51:27;;;;;;;29.65;11.80;;;;;;;1.88;73.21;98584.03;4262150;33;35238;-73
2021/12/07 12:53:55;;;;;;;53.63;22.48;;;;;;;1.88;73.28;98592.59;4260180;33;34497;-73
2021/12/07 12:56:26;;;;;;;172.85;66.53;;;;;;;1.83;73.49;98599.37;4260395;33;32204;-78
2021/12/07 12:59:01;;;;;;;40.95;18.67;;;;;;;2.04;73.06;98588.47;4261529;33;34212;-74
2021/12/07 13:01:32;;;;;;;30.42;16.15;;;;;;;2.06;73.39;98604.75;4249393;33;35072;-78
2021/12/07 13:04:15;;;;;;;37.33;17.20;;;;;;;1.88;73.55;98605.41;4249031;33;34570;-73
2021/12/07 13:07:02;;;;;;;21.62;10.40;;;;;;;2.15;72.95;98618.56;4261676;33;34541;-73
2021/12/07 13:09:45;;;;;;;25.48;13.13;;;;;;;2.18;71.62;98623.75;4260083;33;34735;-73
2021/12/07 13:12:23;;;;;;;26.10;14.13;;;;;;;2.30;72.14;98621.31;4261622;33;35082;-74
2021/12/07 13:14:55;;;;;;;24.85;11.52;;;;;;;1.90;73.19;98620.84;4235376;33;34310;-74
2021/12/07 13:17:38;;;;;;;30.10;10.80;;;;;;;2.31;72.13;98612.75;4258689;33;33616;-79
2021/12/07 13:20:26;;;;;;;23.60;11.45;;;;;;;2.27;72.33;98632.41;4262222;33;33751;-73
2021/12/07 13:23:00;;;;;;;21.92;10.90;;;;;;;2.06;72.80;98624.47;4259999;33;35897;-79
2021/12/07 13:25:35;;;;;;;38.00;14.13;;;;;;;2.02;72.94;98620.13;4262090;33;35356;-77
2021/12/07 13:28:05;;;;;;;27.15;12.45;;;;;;;1.78;74.37;98620.69;4259003;33;33664;-79
2021/12/07 13:31:09;;;;;;;22.48;11.25;;;;;;;1.79;73.77;98627.56;4248458;33;33201;-74
2021/12/07 13:33:49;;;;;;;27.17;12.88;;;;;;;1.99;73.12;98631.22;4261579;33;35180;-74
2021/12/07 13:36:45;;;;;;;25.60;11.40;;;;;;;1.86;73.77;98629.34;4261229;33;34552;-79